Leonore, Illinois
Current Conditions -  °F | °C
As of 4:55 PM on Saturday 20 Dec 2014 (Local Time) from KVYS Reporting Station
Overcast Overcast  
Wind Chill: 28°   Ceiling: 5500
Heat Index: 33°   Visibility: 7mi
Dew Point: 29°   Wind: 6mph
Humidity: 85%   Direction: 150°SSE
Pressure: 30.25"   Gusts: NA
Location:  41.19°N, 88.98°W
Report Text: KVYS 202255Z AUTO 15005KT 7SM OVC055 01/M02 A3025 RMK AO2 T00061017
Loading
Personal Weather Stations






























Interactive Weather Map New forecast layout! Learn more

10-Day Weather Forecast

Advertisements
Track Severe Weather on mobile